SpazioLink.com il tuo mini portale

Terremoti in Italia, posizione geografica

Spaziolink il MiniPortale

Home Sfondi Screenmates Giochi Lotto Posizione Navi Terremoti Calendario feste Barzellette Frasi Utili Giochi Meteo Gifs Software Ricerca
Lista dei terremoti in Italia in tempo reale dopo l'elaborazione dei valori rilevati dai sensori dislocati nelle zone interessate, comprendenti gli eventi sismici di elevata magnitudo sull'intero globo, per visualizzare la posizione dell'epicentro su Google Maps cliccare sul nome del luogo evidenziato in blu.
DATA ORA MAG ≥ 2 ZONA REGIONE LAT LONG PROF km
19/04/2024 11:52:21 ML 2.2 Confine Slovenia-Croazia (SLOVENIA, CROAZIA) Mondo 45.45 14.23 10.1
19/04/2024 11:18:02 Mwp 5.6 New Caledonia (Sea) Mondo -21.88 170.88 87.1
19/04/2024 10:02:23 mb 4.5 Dodecanese Islands, Greece (Land: Greece) Mondo 37.73 26.91 23.4
19/04/2024 02:43:49 ML 2.0 Tirreno Meridionale (MARE) Mare 38.51 15.51 91.2
19/04/2024 00:47:01 ML 2.9 Montenegro (Land) Mondo 42.92 18.56 10.0
18/04/2024 22:30:07 ML 2.0 Confine Slovenia-Croazia (SLOVENIA, CROAZIA) Mondo 45.43 14.37 10.0
18/04/2024 20:17:19 ML 2.5 2 km a sud-ovest di Radicofani (SI) Toscana 42.88 11.76 5.0
18/04/2024 17:12:44 Mwp 5.8 Gulf of California, Mexico (Sea: Mexico) Mondo 26.37 -110.31 10.9
18/04/2024 17:11:26 Mwp 5.7 Turkey Mondo 40.12 36.12 9.0
18/04/2024 10:19:01 ML 2.1 3 km a sud di Montemonaco (AP) Marche 42.88 13.34 24.4
18/04/2024 09:39:49 Mwp 5.5 Gulf of California, Mexico (Sea: Mexico) Mondo 26.76 -110.31 10.9
18/04/2024 08:33:16 ML 2.4 Tirreno Meridionale (MARE) Mare 38.45 15.42 105.6
18/04/2024 04:42:36 ML 2.1 Tirreno Meridionale (MARE) Mare 38.62 15.41 115.6
18/04/2024 04:42:36 ML 2.4 Tirreno Meridionale (MARE) Mare 38.45 15.58 125.5
18/04/2024 02:37:26 ML 2.0 Costa Croata Settentrionale (CROAZIA) Mare 45.24 14.41 10.0
17/04/2024 23:21:56 Mwp 5.6 Nicaragua Mondo 11.19 -85.30 164.8
17/04/2024 22:28:16 ML 2.5 Confine Svizzera-Germania (SVIZZERA, GERMANIA) Mondo 47.77 8.91 10.0
17/04/2024 21:05:13 ML 2.1 3 km a nord di Ricigliano (SA) Campania 40.70 15.49 1.2
17/04/2024 21:03:40 ML 2.5 Confine Slovenia-Croazia (SLOVENIA, CROAZIA) Mondo 45.43 14.37 10.8
17/04/2024 16:14:47 Mwp 6.1 Shikoku, Japan (Sea: Japan) Mondo 33.17 132.41 32.4
17/04/2024 10:12:41 ML 2.4 Confine Slovenia-Croazia (SLOVENIA, CROAZIA) Mondo 45.45 14.43 0.8
17/04/2024 04:53:59 ML 2.2 1 km a nord-ovest di Oncino (CN) Piemonte 44.68 7.18 10.1
16/04/2024 21:19:17 ML 2.2 Isole Eolie (Messina) Mare 38.49 15.04 11.5
16/04/2024 20:11:18 ML 2.2 3 km a est di Poggibonsi (SI) Toscana 43.48 11.18 7.8
16/04/2024 19:49:11 ML 3.4 4 km a est di Poggibonsi (SI) Toscana 43.47 11.20 8.3
16/04/2024 19:45:36 ML 2.1 2 km a ovest di Mongiana (VV) Calabria 38.51 16.29 23.7
16/04/2024 18:38:24 ML 3.0 4 km a est di San Nicola Arcella (CS) Calabria 39.86 15.84 48.2
16/04/2024 16:58:58 Mwp 5.6 Northern Mariana Islands-Guam (Sea) Mondo 12.90 145.40 14.8
16/04/2024 12:17:55 Md 2.3 Campi Flegrei Campania 40.82 14.09 2.8
16/04/2024 08:00:27 ML 2.0 Isole Eolie (Messina) Mare 38.49 15.05 11.6
16/04/2024 05:38:05 Md 2.5 Campi Flegrei Campania 40.83 14.15 2.6
16/04/2024 04:11:32 Md 2.3 Campi Flegrei Campania 40.83 14.14 2.6
16/04/2024 03:40:33 ML 2.0 Tirreno Meridionale (MARE) Mare 38.67 15.56 178.5
16/04/2024 03:34:20 Md 2.0 Campi Flegrei Campania 40.82 14.13 1.9
16/04/2024 00:38:57 Mwp 5.8 Southeast of Ryukyu Islands, Japan (Sea: Japan) Mondo 29.49 131.72 9.0
15/04/2024 22:34:22 ML 2.1 6 km a sud di Abetone (PT) Toscana 44.09 10.65 53.8
15/04/2024 18:58:30 ML 2.0 2 km a sud di Samo (RC) Calabria 38.06 16.06 10.3
15/04/2024 18:56:47 ML 2.2 2 km a sud-est di Samo (RC) Calabria 38.06 16.06 9.9
15/04/2024 15:48:44 ML 2.0 3 km a sud-ovest di Cento (FE) Emilia Romagna 44.71 11.26 25.0
15/04/2024 14:48:39 ML 2.0 3 km a sud-est di Racines (BZ) Trentino Alto Adige 46.86 11.40 9.6
15/04/2024 11:58:50 ML 2.0 1 km a est di Samo (RC) Calabria 38.07 16.07 6.5
15/04/2024 08:06:30 mb 4.6 Crete, Greece (Sea: Greece) Mondo 34.39 26.16 14.8
14/04/2024 22:56:30 Mwp 6.4 Papua New Guinea (Land) Mondo -5.83 151.05 68.0
14/04/2024 18:05:54 Md 2.1 Vesuvio Campania 40.81 14.35 8.0
14/04/2024 10:08:31 Md 2.5 Campi Flegrei Campania 40.83 14.14 1.8
14/04/2024 10:03:44 Md 2.3 Campi Flegrei Campania 40.83 14.13 2.4
14/04/2024 10:01:43 Md 3.0 Campi Flegrei Campania 40.83 14.14 2.4
14/04/2024 09:57:57 Md 2.7 Campi Flegrei Campania 40.83 14.14 1.0
14/04/2024 09:46:58 Md 3.1 Campi Flegrei Campania 40.83 14.14 2.8
14/04/2024 09:46:04 Md 2.0 Campi Flegrei Campania 40.83 14.15 0.9
14/04/2024 09:45:12 Md 2.0 Campi Flegrei Campania 40.83 14.13 2.6
14/04/2024 09:44:24 Md 3.7 Campi Flegrei Campania 40.83 14.14 2.5
14/04/2024 07:21:34 ML 2.1 5 km a est di Fornovo di Taro (PR) Emilia Romagna 44.69 10.16 21.7
14/04/2024 06:25:05 ML 2.2 3 km a est di Fornovo di Taro (PR) Emilia Romagna 44.69 10.14 23.7
14/04/2024 06:20:06 ML 2.4 6 km a sud-est di Mistretta (ME) Sicilia 37.88 14.38 3.9
14/04/2024 04:02:45 mb 4.6 Greece Mondo 38.93 23.40 18.6
14/04/2024 02:54:54 ML 2.0 3 km a ovest di Ortucchio (AQ) Abruzzo 41.95 13.62 9.0
13/04/2024 18:54:11 mb 4.5 Greece Mondo 38.75 23.49 33.4
13/04/2024 17:46:53 ML 2.2 1 km a sud-ovest di Bossico (BG) Lombardia 45.82 10.04 5.5
13/04/2024 17:14:49 Md 2.4 Campi Flegrei Campania 40.80 14.12 3.7
13/04/2024 16:59:00 ML 2.3 3 km a sud-ovest di Arpino (FR) Lazio 41.63 13.59 8.6
13/04/2024 14:16:14 ML 2.0 4 km a ovest di Campello sul Clitunno (PG) Umbria 42.81 12.73 7.3
13/04/2024 07:44:41 Mwp 5.7 China (Land) Mondo 33.49 81.86 5.5
13/04/2024 06:29:07 ML 2.2 6 km a ovest di Sellano (PG) Umbria 42.88 12.85 9.9
13/04/2024 04:23:16 mb 4.6 Greece Mondo 38.97 23.38 14.8
12/04/2024 23:54:16 ML 2.1 3 km a sud-est di Calestano (PR) Emilia Romagna 44.58 10.15 22.3
12/04/2024 21:55:52 ML 3.0 Albania (Land) Mondo 40.52 20.17 10.0
12/04/2024 17:59:20 Mwp 5.9 Solomon Is. (Sea) Mondo -10.18 161.05 51.2
12/04/2024 14:55:18 ML 2.2 2 km a ovest di Trecenta (RO) Veneto 45.03 11.44 7.2
12/04/2024 12:40:29 ML 2.5 Tirreno Meridionale (MARE) Mare 38.94 15.04 174.9
12/04/2024 04:34:06 Md 2.2 Campi Flegrei Campania 40.80 14.11 2.9
- subnet mask - partners - ipcheck - favicon - speedtest - ricarica auto elettriche - canale youtube - programmone